Flight Track Log - Related Links

Times and Time Zones

All times are in EDT time to prevent confusion due to time zone crossing. See the ASQ4301 flight status page for this flight to view local times or setup timezone preferences in your user account.

Time Position Orientation Groundspeed Altitude Reporting Facility
EDT Latitude Longitude Course Direction KTS MPH feet Rate Location/Type
Wed 09:36:00 PM 30.3185 -95.0652 35° Northeast  Level FlightAware Approximate
Wed 09:37:00 PM 30.4283 -94.9717 41° Northeast  Level FlightAware Approximate
Wed 09:38:00 PM 30.5417 -94.8900 35° Northeast  Level FlightAware Approximate
Wed 09:39:00 PM 30.6555 -94.8032 32° Northeast  Level FlightAware Approximate
Wed 09:40:00 PM 30.7688 -94.7150 34° Northeast  Level FlightAware Approximate
Wed 09:41:00 PM 30.8808 -94.6243 36° Northeast  Level FlightAware Approximate
Wed 09:42:00 PM 30.9929 -94.5337 33° Northeast  Level FlightAware Approximate
Wed 09:43:00 PM 31.1068 -94.4461 33° Northeast  Level FlightAware Approximate
Wed 09:44:00 PM 31.1725 -94.3247 85° East  Level FlightAware Approximate
Wed 09:45:00 PM 31.1833 -94.1658 90° East  Level FlightAware Approximate
Wed 09:46:00 PM 31.1833 -94.0064 90° East  Level FlightAware Approximate
Wed 09:47:00 PM 31.2000 -93.8492 90° East  Level FlightAware Approximate
Wed 09:48:00 PM 31.2000 -93.6897 90° East  Level FlightAware Approximate
Wed 09:49:00 PM 31.2150 -93.5314 83° East  Level FlightAware Approximate
Wed 09:50:00 PM 31.2167 -93.3720 90° East  Level FlightAware Approximate
Wed 09:51:00 PM 31.2220 -93.2130 80° East  Level FlightAware Approximate
Wed 09:52:00 PM 31.2334 -93.0546 90° East  Level FlightAware Approximate
Wed 09:53:00 PM 31.2333 -92.8951 90° East  Level FlightAware Approximate
Wed 09:54:00 PM 31.2456 -92.7362 84° East  Level FlightAware Approximate
Wed 09:55:00 PM 31.2500 -92.5769 90° East  Level FlightAware Approximate
Wed 09:56:00 PM 31.3150 -92.5325 337° Northwest  Level FlightAware Approximate
Wed 09:57:00 PM 31.3167 -92.5333 337° Northwest  Level FlightAware Approximate
Wed 09:58:00 PM 31.3274 -92.5486 337° Northwest  Level Estimated
Wed 09:59:00 PM 31.3274 -92.5486 337° Northwest  Level Estimated
Wed 10:00:00 PM 31.3274 -92.5486 337° Northwest  Level Estimated
Wed 10:01:00 PM 31.3274 -92.5486 337° Northwest  Level Estimated
Wed 10:02:00 PM 31.3274 -92.5486 337° Northwest  Level Estimated
Wed 10:03:00 PM 31.3274 -92.5486 337° Northwest  Level Estimated
Wed 10:04:00 PM 31.3274 -92.5486 337° Northwest  Level Estimated
Wed 10:05:00 PM 31.3274 -92.5486 337° Northwest  Level Estimated
Wed 10:06:00 PM 31.3274 -92.5486 337° Northwest  Level Estimated

Login

Don't have an account? Register now (free) for customized features, flight alerts, and more!